Time,TemperatureF,DewpointF,PressureIn,WindDirection,WindDirectionDegrees,WindSpeedMPH,WindSpeedGustMPH,Humidity,HourlyPrecipIn,Conditions,Clouds,dailyrainin,SolarRadiationWatts/m^2,SoftwareType,DateUTC
2013-07-29 00:02:00,83.0,65.0,-100.00,SE,124,8.0,13.0,55,0.00,,,0.00,0.000000,,2013-07-29 05:02:00,
2013-07-29 00:32:00,83.0,66.0,-100.00,ESE,116,7.0,13.0,57,0.00,,,0.00,0.000000,,2013-07-29 05:32:00,
2013-07-29 00:43:00,83.0,66.0,-100.00,ESE,116,7.0,13.0,57,0.00,,,0.00,0.000000,,2013-07-29 05:43:00,
2013-07-29 00:53:00,83.0,66.0,-100.00,ESE,116,7.0,13.0,57,0.00,,,0.00,0.000000,,2013-07-29 05:53:00,
2013-07-29 01:02:00,83.0,66.0,-100.00,ESE,116,7.0,13.0,57,0.00,,,0.00,0.000000,,2013-07-29 06:02:00,
2013-07-29 01:33:00,82.0,68.0,-100.00,ESE,118,7.0,13.0,62,0.00,,,0.00,0.000000,,2013-07-29 06:33:00,
2013-07-29 01:43:00,82.0,68.0,-100.00,ESE,118,7.0,13.0,62,0.00,,,0.00,0.000000,,2013-07-29 06:43:00,
2013-07-29 01:52:00,82.0,68.0,-100.00,ESE,118,7.0,13.0,62,0.00,,,0.00,0.000000,,2013-07-29 06:52:00,
2013-07-29 02:02:00,82.0,68.0,-100.00,ESE,118,7.0,13.0,62,0.00,,,0.00,0.000000,,2013-07-29 07:02:00,
2013-07-29 02:33:00,80.0,68.0,-100.00,ESE,113,6.0,10.0,68,0.00,,,0.00,0.000000,,2013-07-29 07:33:00,
2013-07-29 02:43:00,80.0,68.0,-100.00,ESE,113,6.0,10.0,68,0.00,,,0.00,0.000000,,2013-07-29 07:43:00,
2013-07-29 02:53:00,80.0,68.0,-100.00,ESE,113,6.0,10.0,68,0.00,,,0.00,0.000000,,2013-07-29 07:53:00,
2013-07-29 03:02:00,80.0,68.0,-100.00,ESE,113,6.0,10.0,68,0.00,,,0.00,0.000000,,2013-07-29 08:02:00,
2013-07-29 03:33:00,79.0,69.0,-100.00,ESE,121,5.0,11.0,72,0.00,,,0.00,0.000000,,2013-07-29 08:33:00,
2013-07-29 03:42:00,79.0,69.0,-100.00,ESE,121,5.0,11.0,72,0.00,,,0.00,0.000000,,2013-07-29 08:42:00,
2013-07-29 03:52:00,79.0,69.0,-100.00,ESE,121,5.0,11.0,72,0.00,,,0.00,0.000000,,2013-07-29 08:52:00,
2013-07-29 04:02:00,79.0,69.0,-100.00,ESE,121,5.0,11.0,72,0.00,,,0.00,0.000000,,2013-07-29 09:02:00,
2013-07-29 04:33:00,79.0,70.0,-100.00,SE,135,7.0,13.0,73,0.00,,,0.00,0.000000,,2013-07-29 09:33:00,
2013-07-29 04:43:00,79.0,70.0,-100.00,SE,135,7.0,13.0,73,0.00,,,0.00,0.000000,,2013-07-29 09:43:00,
2013-07-29 04:53:00,79.0,70.0,-100.00,SE,135,7.0,13.0,73,0.00,,,0.00,0.000000,,2013-07-29 09:53:00,
2013-07-29 05:02:00,79.0,70.0,-100.00,SE,135,7.0,13.0,73,0.00,,,0.00,0.000000,,2013-07-29 10:02:00,
2013-07-29 05:39:00,79.0,70.0,-100.00,SE,125,7.0,11.0,73,0.00,,,0.00,0.000000,,2013-07-29 10:39:00,
2013-07-29 05:49:00,79.0,70.0,-100.00,SE,125,7.0,11.0,73,0.00,,,0.00,0.000000,,2013-07-29 10:49:00,
2013-07-29 06:04:00,79.0,70.0,-100.00,SE,125,7.0,11.0,73,0.00,,,0.00,0.000000,,2013-07-29 11:04:00,
2013-07-29 06:05:00,79.0,69.0,-100.00,SE,142,9.0,15.0,72,0.00,,,0.00,0.000000,,2013-07-29 11:05:00,
2013-07-29 06:38:00,79.0,69.0,-100.00,SE,142,9.0,15.0,72,0.00,,,0.00,0.000000,,2013-07-29 11:38:00,
2013-07-29 06:59:00,79.0,69.0,-100.00,SE,142,9.0,15.0,72,0.00,,,0.00,0.000000,,2013-07-29 11:59:00,
2013-07-29 07:37:00,79.0,70.0,-100.00,SSE,151,8.0,14.0,74,0.00,,,0.00,3.000000,,2013-07-29 12:37:00,
2013-07-29 07:49:00,79.0,70.0,-100.00,SSE,151,8.0,14.0,74,0.00,,,0.00,3.000000,,2013-07-29 12:49:00,
2013-07-29 07:58:00,79.0,70.0,-100.00,SSE,151,8.0,14.0,74,0.00,,,0.00,3.000000,,2013-07-29 12:58:00,
2013-07-29 08:05:00,80.0,71.0,-100.00,SSE,153,7.0,12.0,75,0.00,,,0.00,79.000000,,2013-07-29 13:05:00,
2013-07-29 08:38:00,80.0,71.0,-100.00,SSE,153,7.0,12.0,75,0.00,,,0.00,79.000000,,2013-07-29 13:38:00,
2013-07-29 08:45:00,80.0,71.0,-100.00,SSE,153,7.0,12.0,75,0.00,,,0.00,79.000000,,2013-07-29 13:45:00,
2013-07-29 08:57:00,80.0,71.0,-100.00,SSE,153,7.0,12.0,75,0.00,,,0.00,79.000000,,2013-07-29 13:57:00,
2013-07-29 09:37:00,84.0,73.0,-100.00,South,175,8.0,13.0,70,0.00,,,0.00,318.000000,,2013-07-29 14:37:00,
2013-07-29 09:48:00,84.0,73.0,-100.00,South,175,8.0,13.0,70,0.00,,,0.00,318.000000,,2013-07-29 14:48:00,
2013-07-29 09:57:00,84.0,73.0,-100.00,South,175,8.0,13.0,70,0.00,,,0.00,318.000000,,2013-07-29 14:57:00,
2013-07-29 10:05:00,86.0,73.0,-100.00,South,183,9.0,14.0,65,0.00,,,0.00,326.000000,,2013-07-29 15:05:00,
2013-07-29 10:39:00,86.0,73.0,-100.00,South,183,9.0,14.0,65,0.00,,,0.00,326.000000,,2013-07-29 15:39:00,
2013-07-29 10:46:00,86.0,73.0,-100.00,South,183,9.0,14.0,65,0.00,,,0.00,326.000000,,2013-07-29 15:46:00,
2013-07-29 10:55:00,86.0,73.0,-100.00,South,183,9.0,14.0,65,0.00,,,0.00,326.000000,,2013-07-29 15:55:00,
2013-07-29 11:05:00,86.0,69.0,-100.00,South,182,6.0,15.0,58,0.00,,,0.00,218.000000,,2013-07-29 16:05:00,
2013-07-29 11:41:00,86.0,69.0,-100.00,South,182,6.0,15.0,58,0.00,,,0.00,218.000000,,2013-07-29 16:41:00,
2013-07-29 11:47:00,86.0,69.0,-100.00,South,182,6.0,15.0,58,0.00,,,0.00,218.000000,,2013-07-29 16:47:00,
2013-07-29 11:57:00,86.0,69.0,-100.00,South,182,6.0,15.0,58,0.00,,,0.00,218.000000,,2013-07-29 16:57:00,
2013-07-29 14:39:00,89.0,73.0,-100.00,SSE,148,8.0,11.0,60,-99.99,,,0.15,611.000000,,2013-07-29 19:39:00,
2013-07-29 14:48:00,89.0,73.0,-100.00,SSE,148,8.0,11.0,60,-99.99,,,0.15,611.000000,,2013-07-29 19:48:00,
2013-07-29 14:58:00,89.0,73.0,-100.00,SSE,148,8.0,11.0,60,-99.99,,,0.15,611.000000,,2013-07-29 19:58:00,
2013-07-29 15:04:00,89.0,73.0,-100.00,SSE,148,8.0,11.0,60,-99.99,,,0.15,611.000000,,2013-07-29 20:04:00,
2013-07-29 15:38:00,94.0,71.0,-100.00,SSE,161,9.0,14.0,48,0.00,,,0.15,819.000000,,2013-07-29 20:38:00,
2013-07-29 15:49:00,94.0,71.0,-100.00,SSE,161,9.0,14.0,48,0.00,,,0.15,819.000000,,2013-07-29 20:49:00,
2013-07-29 15:58:00,94.0,71.0,-100.00,SSE,161,9.0,14.0,48,0.00,,,0.15,819.000000,,2013-07-29 20:58:00,
2013-07-29 16:04:00,94.0,71.0,-100.00,SSE,161,9.0,14.0,48,0.00,,,0.15,819.000000,,2013-07-29 21:04:00,
2013-07-29 16:37:00,96.0,72.0,-100.00,SSE,159,8.0,13.0,46,0.00,,,0.15,538.000000,,2013-07-29 21:37:00,
2013-07-29 16:49:00,96.0,72.0,-100.00,SSE,159,8.0,13.0,46,0.00,,,0.15,538.000000,,2013-07-29 21:49:00,
2013-07-29 17:00:00,96.0,72.0,-100.00,SSE,159,8.0,13.0,46,0.00,,,0.15,538.000000,,2013-07-29 22:00:00,
2013-07-29 17:39:00,97.0,68.0,-100.00,South,172,9.0,16.0,39,0.00,,,0.15,602.000000,,2013-07-29 22:39:00,
2013-07-29 17:46:00,97.0,68.0,-100.00,South,172,9.0,16.0,39,0.00,,,0.15,602.000000,,2013-07-29 22:46:00,
2013-07-29 17:57:00,97.0,68.0,-100.00,South,172,9.0,16.0,39,0.00,,,0.15,602.000000,,2013-07-29 22:57:00,
2013-07-29 18:04:00,97.0,68.0,-100.00,South,172,9.0,16.0,39,0.00,,,0.15,602.000000,,2013-07-29 23:04:00,
2013-07-29 18:05:00,96.0,68.0,-100.00,SSE,168,10.0,18.0,40,0.00,,,0.15,405.000000,,2013-07-29 23:05:00,
2013-07-29 18:35:00,96.0,68.0,-100.00,SSE,168,10.0,18.0,40,0.00,,,0.15,405.000000,,2013-07-29 23:35:00,
2013-07-29 18:47:00,96.0,68.0,-100.00,SSE,168,10.0,18.0,40,0.00,,,0.15,405.000000,,2013-07-29 23:47:00,
2013-07-29 18:57:00,96.0,68.0,-100.00,SSE,168,10.0,18.0,40,0.00,,,0.15,405.000000,,2013-07-29 23:57:00,
2013-07-29 19:05:00,94.0,65.0,-100.00,South,176,10.0,17.0,39,0.00,,,0.15,328.000000,,2013-07-30 00:05:00,
2013-07-29 19:35:00,94.0,65.0,-100.00,South,176,10.0,17.0,39,0.00,,,0.15,328.000000,,2013-07-30 00:35:00,
2013-07-29 19:51:00,94.0,65.0,-100.00,South,176,10.0,17.0,39,0.00,,,0.15,328.000000,,2013-07-30 00:51:00,
2013-07-29 20:05:00,92.0,66.0,-100.00,SSE,161,9.0,17.0,43,0.00,,,0.15,90.000000,,2013-07-30 01:05:00,
2013-07-29 20:38:00,92.0,66.0,-100.00,SSE,161,9.0,17.0,43,0.00,,,0.15,90.000000,,2013-07-30 01:38:00,
2013-07-29 20:46:00,92.0,66.0,-100.00,SSE,161,9.0,17.0,43,0.00,,,0.15,90.000000,,2013-07-30 01:46:00,
2013-07-29 21:05:00,89.0,61.0,-100.00,SSE,148,9.0,15.0,40,0.00,,,-99.99,3.000000,,2013-07-30 02:05:00,
2013-07-29 21:39:00,89.0,61.0,-100.00,SSE,148,9.0,15.0,40,0.00,,,-99.99,3.000000,,2013-07-30 02:39:00,
2013-07-29 21:46:00,89.0,61.0,-100.00,SSE,148,9.0,15.0,40,0.00,,,-99.99,3.000000,,2013-07-30 02:46:00,
2013-07-29 21:56:00,89.0,61.0,-100.00,SSE,148,9.0,15.0,40,0.00,,,-99.99,3.000000,,2013-07-30 02:56:00,
2013-07-29 22:36:00,88.0,61.0,-100.00,SE,144,11.0,16.0,40,0.00,,,0.15,0.000000,,2013-07-30 03:36:00,
2013-07-29 22:55:00,88.0,61.0,-100.00,SE,144,11.0,16.0,40,0.00,,,0.15,0.000000,,2013-07-30 03:55:00,
2013-07-29 23:03:00,88.0,61.0,-100.00,SE,144,11.0,16.0,40,0.00,,,0.15,0.000000,,2013-07-30 04:03:00,
2013-07-29 23:33:00,86.0,60.0,-100.00,SSE,162,10.0,17.0,42,0.00,,,0.15,0.000000,,2013-07-30 04:33:00,
2013-07-29 23:43:00,86.0,60.0,-100.00,SSE,162,10.0,17.0,42,0.00,,,0.15,0.000000,,2013-07-30 04:43:00,
2013-07-29 23:53:00,86.0,60.0,-100.00,SSE,162,10.0,17.0,42,0.00,,,0.15,0.000000,,2013-07-30 04:53:00,